createdAt,value
2019-06-20T00:02:24.251Z,24.90
2019-06-20T00:04:52.957Z,24.90
2019-06-20T00:07:21.703Z,24.90
2019-06-20T00:09:52.415Z,24.90
2019-06-20T00:12:20.736Z,24.80
2019-06-20T00:14:49.469Z,24.80
2019-06-20T00:17:18.138Z,24.70
2019-06-20T00:19:46.903Z,24.60
2019-06-20T00:22:15.580Z,24.50
2019-06-20T00:24:44.258Z,24.40
2019-06-20T00:27:12.978Z,24.30
2019-06-20T00:29:41.664Z,24.20
2019-06-20T00:32:10.415Z,24.20
2019-06-20T00:34:39.083Z,24.10
2019-06-20T00:37:07.769Z,24.10
2019-06-20T00:39:36.514Z,24.20
2019-06-20T00:42:05.198Z,24.20
2019-06-20T00:44:33.873Z,24.30
2019-06-20T00:47:02.594Z,24.20
2019-06-20T00:49:31.284Z,24.20
2019-06-20T00:52:00.032Z,24.20
2019-06-20T00:54:28.718Z,24.30
2019-06-20T00:56:57.398Z,24.30
2019-06-20T00:59:26.105Z,24.20
2019-06-20T01:01:54.804Z,24.30
2019-06-20T01:04:23.537Z,24.20
2019-06-20T01:06:52.269Z,24.30
2019-06-20T01:09:20.972Z,24.20
2019-06-20T01:11:49.716Z,24.20
2019-06-20T01:14:18.394Z,24.10
2019-06-20T01:16:47.094Z,24.10
2019-06-20T01:19:15.820Z,24.10
2019-06-20T01:21:44.497Z,24.10
2019-06-20T01:24:13.254Z,24.10
2019-06-20T01:26:41.946Z,24.10
2019-06-20T01:29:10.634Z,24.10
2019-06-20T01:31:39.346Z,24.00
2019-06-20T01:34:08.043Z,23.90
2019-06-20T01:36:36.786Z,23.90
2019-06-20T01:39:06.980Z,24.00
2019-06-20T01:41:35.666Z,24.00
2019-06-20T01:44:04.394Z,24.00
2019-06-20T01:46:33.083Z,24.00
2019-06-20T01:49:01.875Z,24.10
2019-06-20T01:51:30.562Z,24.00
2019-06-20T01:53:59.254Z,23.90
2019-06-20T01:56:27.980Z,23.90
2019-06-20T01:58:56.668Z,23.90
2019-06-20T02:01:25.428Z,23.90
2019-06-20T02:03:54.110Z,24.00
2019-06-20T02:06:22.790Z,23.90
2019-06-20T02:08:51.540Z,23.80
2019-06-20T02:11:20.248Z,23.80
2019-06-20T02:13:48.906Z,23.80
2019-06-20T02:16:17.640Z,23.80
2019-06-20T02:18:46.334Z,23.80
2019-06-20T02:21:33.412Z,23.80
2019-06-20T02:24:02.082Z,23.70
2019-06-20T02:26:30.767Z,23.60
2019-06-20T02:28:59.510Z,23.60
2019-06-20T02:31:28.195Z,23.60
2019-06-20T02:33:56.952Z,23.60
2019-06-20T02:36:25.695Z,23.60
2019-06-20T02:38:54.390Z,23.60
2019-06-20T02:41:23.140Z,23.50
2019-06-20T02:43:51.825Z,23.50
2019-06-20T02:46:20.500Z,23.40
2019-06-20T02:48:49.224Z,23.40
2019-06-20T02:51:18.515Z,23.60
2019-06-20T02:53:47.306Z,23.60
2019-06-20T02:56:15.996Z,23.60
2019-06-20T02:58:44.678Z,23.60
2019-06-20T03:01:13.410Z,23.60
2019-06-20T03:03:42.105Z,23.60
2019-06-20T03:06:10.861Z,23.50
2019-06-20T03:08:39.560Z,23.50
2019-06-20T03:11:08.256Z,23.40
2019-06-20T03:13:36.993Z,23.40
2019-06-20T03:16:05.685Z,23.40
2019-06-20T03:18:34.375Z,23.50
2019-06-20T03:21:03.100Z,23.50
2019-06-20T03:23:31.781Z,23.40
2019-06-20T03:26:00.536Z,23.50
2019-06-20T03:28:29.215Z,23.50
2019-06-20T03:30:57.921Z,23.50
2019-06-20T03:33:26.628Z,23.40
2019-06-20T03:35:55.733Z,23.40
2019-06-20T03:38:24.471Z,23.40
2019-06-20T03:40:53.173Z,23.40
2019-06-20T03:43:21.853Z,23.40
2019-06-20T03:45:50.583Z,23.40
2019-06-20T03:48:19.275Z,23.40
2019-06-20T03:50:48.037Z,23.50
2019-06-20T03:53:16.739Z,23.40
2019-06-20T03:55:45.431Z,23.40
2019-06-20T03:58:14.186Z,23.40
2019-06-20T04:00:42.901Z,23.40
2019-06-20T04:03:11.553Z,23.40
2019-06-20T04:05:40.273Z,23.50
2019-06-20T04:08:08.965Z,23.50
2019-06-20T04:10:37.727Z,23.50
2019-06-20T04:13:06.423Z,23.40
2019-06-20T04:15:35.106Z,23.50
2019-06-20T04:18:03.870Z,23.60
2019-06-20T04:20:32.538Z,23.60
2019-06-20T04:23:01.301Z,23.60
2019-06-20T04:25:29.985Z,23.60
2019-06-20T04:27:58.669Z,23.60
2019-06-20T04:30:27.427Z,23.50
2019-06-20T04:32:56.121Z,23.60
2019-06-20T04:35:24.803Z,23.60
2019-06-20T04:37:53.539Z,23.70
2019-06-20T04:40:22.232Z,23.80
2019-06-20T04:42:51.000Z,23.80
2019-06-20T04:45:34.506Z,23.80
2019-06-20T04:47:54.801Z,23.70
2019-06-20T04:50:23.530Z,23.80
2019-06-20T04:52:52.215Z,23.80
2019-06-20T04:55:21.029Z,23.80
2019-06-20T04:57:49.768Z,23.70
2019-06-20T05:00:18.456Z,23.70
2019-06-20T05:02:47.205Z,23.80
2019-06-20T05:05:15.901Z,23.70
2019-06-20T05:07:44.658Z,23.80
2019-06-20T05:10:13.345Z,23.80
2019-06-20T05:12:42.037Z,23.90
2019-06-20T05:15:10.813Z,23.90
2019-06-20T05:17:39.597Z,23.90
2019-06-20T05:20:08.283Z,23.90
2019-06-20T05:22:37.012Z,24.00
2019-06-20T05:25:05.926Z,24.00
2019-06-20T05:27:34.652Z,24.10
2019-06-20T05:30:04.772Z,24.10
2019-06-20T05:32:33.429Z,24.20
2019-06-20T05:35:03.203Z,24.20
2019-06-20T05:37:31.964Z,24.20
2019-06-20T05:40:00.741Z,24.30
2019-06-20T05:42:29.441Z,24.30
2019-06-20T05:44:58.121Z,24.60
2019-06-20T05:47:27.050Z,24.80
2019-06-20T05:49:55.811Z,25.00
2019-06-20T05:52:24.453Z,25.00
2019-06-20T05:54:53.180Z,25.00
2019-06-20T05:57:22.448Z,25.00
2019-06-20T05:59:51.343Z,25.00
2019-06-20T06:02:20.017Z,25.00
2019-06-20T06:04:49.573Z,25.00
2019-06-20T06:07:18.286Z,25.00
2019-06-20T06:09:46.964Z,25.00
2019-06-20T06:12:15.709Z,25.00
2019-06-20T06:14:44.406Z,25.00
2019-06-20T06:17:13.083Z,25.00
2019-06-20T06:19:41.804Z,25.00
2019-06-20T06:22:10.500Z,25.00
2019-06-20T06:24:39.250Z,24.90
2019-06-20T06:27:07.928Z,25.00
2019-06-20T06:29:36.610Z,25.00
2019-06-20T06:32:05.366Z,25.00
2019-06-20T06:34:34.051Z,25.00
2019-06-20T06:37:02.727Z,25.00
2019-06-20T06:39:31.456Z,25.00
2019-06-20T06:42:00.146Z,25.10
2019-06-20T06:44:31.667Z,25.10
2019-06-20T06:46:59.909Z,25.10
2019-06-20T06:49:29.854Z,25.10
2019-06-20T06:51:58.585Z,25.00
2019-06-20T06:54:27.367Z,25.10
2019-06-20T06:56:56.165Z,25.30
2019-06-20T06:59:24.847Z,25.50
2019-06-20T07:01:53.527Z,25.60
2019-06-20T07:04:22.265Z,25.50
2019-06-20T07:06:50.949Z,25.50
2019-06-20T07:09:19.690Z,25.40
2019-06-20T07:11:48.369Z,25.40
2019-06-20T07:14:17.069Z,25.40
2019-06-20T07:16:59.475Z,25.30
2019-06-20T07:19:16.179Z,25.30
2019-06-20T07:21:44.869Z,25.30
2019-06-20T07:24:13.594Z,25.30
2019-06-20T07:26:42.273Z,25.30
2019-06-20T07:29:11.022Z,25.20
2019-06-20T07:31:39.703Z,25.20
2019-06-20T07:34:08.335Z,25.20
2019-06-20T07:36:37.101Z,25.20
2019-06-20T07:39:08.453Z,25.20
2019-06-20T07:41:37.227Z,25.20
2019-06-20T07:44:05.915Z,25.20
2019-06-20T07:46:34.587Z,25.20
2019-06-20T07:49:03.340Z,25.20
2019-06-20T07:51:32.013Z,25.20
2019-06-20T07:54:00.699Z,25.20
2019-06-20T07:56:29.485Z,25.20
2019-06-20T07:58:58.229Z,25.30
2019-06-20T08:01:26.986Z,25.30
2019-06-20T08:03:55.670Z,25.30
2019-06-20T08:06:24.398Z,25.30
2019-06-20T08:08:53.189Z,25.30
2019-06-20T08:11:21.930Z,25.30
2019-06-20T08:13:50.766Z,25.30
2019-06-20T08:16:19.440Z,25.40
2019-06-20T08:18:48.125Z,25.50
2019-06-20T08:21:16.835Z,25.40
2019-06-20T08:23:45.553Z,25.50
2019-06-20T08:26:14.313Z,25.40
2019-06-20T08:28:42.988Z,25.60
2019-06-20T08:31:11.694Z,25.70
2019-06-20T08:33:40.561Z,25.70
2019-06-20T08:36:09.247Z,25.70
2019-06-20T08:38:38.143Z,25.70
2019-06-20T08:41:07.077Z,25.70
2019-06-20T08:43:35.773Z,25.70
2019-06-20T08:46:08.881Z,25.70
2019-06-20T08:48:34.830Z,25.70
2019-06-20T08:51:04.539Z,25.70
2019-06-20T08:53:33.351Z,25.80
2019-06-20T08:56:03.202Z,25.80
2019-06-20T08:58:32.078Z,25.90
2019-06-20T09:03:31.091Z,25.90
2019-06-20T09:05:59.808Z,25.90
2019-06-20T09:08:28.496Z,26.00
2019-06-20T09:10:57.512Z,26.00
2019-06-20T09:13:26.311Z,26.10
2019-06-20T09:15:54.990Z,26.10
2019-06-20T09:18:23.730Z,26.10
2019-06-20T09:20:53.145Z,26.20
2019-06-20T09:23:22.742Z,26.30
2019-06-20T09:25:52.346Z,26.40
2019-06-20T09:28:21.052Z,26.40
2019-06-20T09:30:50.663Z,26.50
2019-06-20T09:33:20.163Z,26.50
2019-06-20T09:35:48.850Z,26.60
2019-06-20T09:38:17.608Z,26.80
2019-06-20T09:40:46.297Z,26.80
2019-06-20T09:43:26.773Z,26.80
2019-06-20T09:45:45.358Z,26.80
2019-06-20T09:48:14.047Z,26.80
2019-06-20T09:50:42.765Z,26.80
2019-06-20T09:53:11.455Z,26.80
2019-06-20T09:55:40.201Z,26.80
2019-06-20T09:58:08.887Z,26.90
2019-06-20T10:00:37.563Z,26.90
2019-06-20T10:03:06.438Z,27.00
2019-06-20T10:05:35.400Z,26.90
2019-06-20T10:08:04.136Z,27.00
2019-06-20T10:10:32.865Z,27.10
2019-06-20T10:13:01.541Z,27.10
2019-06-20T10:15:31.791Z,27.20
2019-06-20T10:18:00.471Z,27.20
2019-06-20T10:20:29.159Z,27.10
2019-06-20T10:22:57.953Z,27.10
2019-06-20T10:25:26.620Z,27.20
2019-06-20T10:27:55.361Z,27.20
2019-06-20T10:30:24.751Z,27.30
2019-06-20T10:32:53.443Z,27.20
2019-06-20T10:35:22.139Z,27.40
2019-06-20T10:37:50.920Z,27.40
2019-06-20T10:40:20.195Z,27.40
2019-06-20T10:42:50.149Z,27.40
2019-06-20T10:45:21.468Z,27.30
2019-06-20T10:47:50.976Z,27.30
2019-06-20T10:50:19.923Z,27.40
2019-06-20T10:52:50.011Z,27.50
2019-06-20T10:55:18.961Z,27.50
2019-06-20T10:57:49.547Z,27.50
2019-06-20T11:00:30.282Z,27.50
2019-06-20T11:02:49.104Z,27.50
2019-06-20T11:05:18.575Z,27.60
2019-06-20T11:07:47.597Z,27.70
2019-06-20T11:10:16.376Z,27.70
2019-06-20T11:12:50.226Z,27.70
2019-06-20T11:15:15.573Z,27.60
2019-06-20T11:17:44.318Z,27.70
2019-06-20T11:20:13.110Z,27.80
2019-06-20T11:22:43.194Z,27.90
2019-06-20T11:25:11.987Z,27.90
2019-06-20T11:27:40.700Z,27.90
2019-06-20T11:30:14.643Z,28.00
2019-06-20T11:32:43.554Z,28.10
2019-06-20T11:35:12.310Z,28.10
2019-06-20T11:37:42.277Z,28.10
2019-06-20T11:40:11.100Z,28.30
2019-06-20T11:42:39.982Z,28.30
2019-06-20T11:45:08.862Z,28.30
2019-06-20T11:47:38.272Z,28.20
2019-06-20T11:50:07.235Z,28.30
2019-06-20T11:52:40.615Z,28.30
2019-06-20T11:55:07.206Z,28.40
2019-06-20T11:57:35.896Z,28.60
2019-06-20T12:00:06.130Z,28.70
2019-06-20T12:02:34.825Z,28.80
2019-06-20T12:05:05.202Z,28.60
2019-06-20T12:07:33.885Z,28.70
2019-06-20T12:10:02.897Z,28.90
2019-06-20T12:12:31.690Z,28.90
2019-06-20T12:15:00.395Z,28.90
2019-06-20T12:17:29.194Z,28.80
2019-06-20T12:19:57.965Z,28.90
2019-06-20T12:22:26.633Z,29.00
2019-06-20T12:24:55.391Z,29.10
2019-06-20T12:27:31.109Z,29.30
2019-06-20T12:30:00.053Z,29.30
2019-06-20T12:32:28.743Z,29.30
2019-06-20T12:34:57.462Z,29.30
2019-06-20T12:37:26.210Z,29.30
2019-06-20T12:39:54.893Z,29.30
2019-06-20T12:42:23.590Z,29.40
2019-06-20T12:44:52.290Z,29.50
2019-06-20T12:47:21.275Z,29.70
2019-06-20T12:49:50.696Z,29.90
2019-06-20T12:52:19.442Z,29.80
2019-06-20T12:54:49.159Z,29.80
2019-06-20T12:57:18.095Z,29.80
2019-06-20T12:59:48.189Z,29.70
2019-06-20T13:02:17.143Z,29.60
2019-06-20T13:04:46.047Z,29.50
2019-06-20T13:07:14.832Z,29.30
2019-06-20T13:09:44.011Z,29.10
2019-06-20T13:12:15.072Z,28.80
2019-06-20T13:14:45.580Z,28.60
2019-06-20T13:17:21.559Z,28.40
2019-06-20T13:19:50.339Z,28.20
2019-06-20T13:22:19.184Z,28.00
2019-06-20T13:24:49.417Z,27.90
2019-06-20T13:27:20.842Z,28.00
2019-06-20T13:29:51.186Z,28.00
2019-06-20T13:32:19.909Z,27.90
2019-06-20T13:34:48.946Z,28.00
2019-06-20T13:37:17.779Z,28.10
2019-06-20T13:39:47.420Z,28.20
2019-06-20T13:42:23.985Z,28.40
2019-06-20T13:44:52.706Z,28.50
2019-06-20T13:47:21.485Z,28.60
2019-06-20T13:49:51.716Z,28.70
2019-06-20T13:52:20.464Z,28.90
2019-06-20T13:54:49.913Z,29.10
2019-06-20T13:57:18.803Z,29.20
2019-06-20T13:59:47.967Z,29.30
2019-06-20T14:02:17.860Z,29.40
2019-06-20T14:04:46.564Z,29.50
2019-06-20T14:07:15.224Z,29.70
2019-06-20T14:09:44.636Z,29.60
2019-06-20T14:12:13.418Z,29.50
2019-06-20T14:14:43.634Z,29.40
2019-06-20T14:17:12.625Z,29.20
2019-06-20T14:19:42.179Z,28.80
2019-06-20T14:22:11.720Z,28.50
2019-06-20T14:24:40.440Z,28.30
2019-06-20T14:27:09.222Z,28.00
2019-06-20T14:29:37.901Z,27.80
2019-06-20T14:32:18.811Z,27.70
2019-06-20T14:34:36.943Z,27.50
2019-06-20T14:37:05.710Z,27.40
2019-06-20T14:39:34.456Z,27.40
2019-06-20T14:42:03.142Z,27.40
2019-06-20T14:44:31.864Z,27.30
2019-06-20T14:47:00.603Z,27.20
2019-06-20T14:49:29.410Z,27.10
2019-06-20T14:51:58.171Z,26.90
2019-06-20T14:54:27.131Z,26.80
2019-06-20T14:56:58.145Z,26.70
2019-06-20T14:59:26.234Z,26.70
2019-06-20T15:01:55.494Z,26.90
2019-06-20T15:04:24.718Z,27.10
2019-06-20T15:06:54.684Z,27.30
2019-06-20T15:09:23.475Z,27.40
2019-06-20T15:11:53.242Z,27.40
2019-06-20T15:14:22.121Z,27.40
2019-06-20T15:16:51.261Z,27.40
2019-06-20T15:19:20.060Z,27.20
2019-06-20T15:21:50.095Z,27.00
2019-06-20T15:24:19.022Z,27.00
2019-06-20T15:26:48.999Z,26.90
2019-06-20T15:29:18.163Z,26.80
2019-06-20T15:31:47.663Z,26.80
2019-06-20T15:34:17.307Z,26.70
2019-06-20T15:36:46.715Z,26.70
2019-06-20T15:39:16.342Z,26.70
2019-06-20T15:41:45.038Z,26.70
2019-06-20T15:44:13.812Z,26.80
2019-06-20T15:46:42.570Z,26.80
2019-06-20T15:49:16.211Z,26.90
2019-06-20T15:51:41.824Z,26.90
2019-06-20T15:54:10.508Z,26.80
2019-06-20T15:56:39.264Z,26.80
2019-06-20T15:59:07.951Z,26.80
2019-06-20T16:01:36.643Z,26.80
2019-06-20T16:04:05.507Z,26.90
2019-06-20T16:06:34.186Z,27.10
2019-06-20T16:09:02.908Z,27.10
2019-06-20T16:11:31.599Z,27.10
2019-06-20T16:14:00.278Z,27.10
2019-06-20T16:16:29.028Z,27.20
2019-06-20T16:18:57.702Z,27.20
2019-06-20T16:21:26.374Z,27.20
2019-06-20T16:23:55.097Z,27.30
2019-06-20T16:26:23.786Z,27.30
2019-06-20T16:28:52.525Z,27.30
2019-06-20T16:31:26.870Z,27.30
2019-06-20T16:33:51.555Z,27.40
2019-06-20T16:36:20.265Z,27.50
2019-06-20T16:38:48.940Z,27.50
2019-06-20T16:41:17.696Z,27.50
2019-06-20T16:43:46.384Z,27.50
2019-06-20T16:46:15.063Z,27.50
2019-06-20T16:48:43.828Z,27.50
2019-06-20T16:51:12.507Z,27.50
2019-06-20T16:53:41.194Z,27.50
2019-06-20T16:56:09.915Z,27.50
2019-06-20T16:58:38.599Z,27.50
2019-06-20T17:01:07.367Z,27.50
2019-06-20T17:03:41.622Z,27.60
2019-06-20T17:06:06.382Z,27.80
2019-06-20T17:08:35.089Z,27.80
2019-06-20T17:11:03.777Z,27.80
2019-06-20T17:13:32.547Z,27.70
2019-06-20T17:16:01.265Z,27.60
2019-06-20T17:18:30.012Z,27.60
2019-06-20T17:20:58.718Z,27.50
2019-06-20T17:23:27.581Z,27.50
2019-06-20T17:25:56.299Z,27.40
2019-06-20T17:28:24.992Z,27.40
2019-06-20T17:30:53.669Z,27.40
2019-06-20T17:33:22.403Z,27.30
2019-06-20T17:35:51.098Z,27.40
2019-06-20T17:38:19.786Z,27.40
2019-06-20T17:40:48.494Z,27.40
2019-06-20T17:43:17.192Z,27.40
2019-06-20T17:45:45.937Z,27.40
2019-06-20T17:48:14.691Z,27.40
2019-06-20T17:50:43.417Z,27.40
2019-06-20T17:53:12.265Z,27.50
2019-06-20T17:55:40.935Z,27.50
2019-06-20T17:58:09.705Z,27.50
2019-06-20T18:00:38.367Z,27.50
2019-06-20T18:03:07.053Z,27.50
2019-06-20T18:05:35.814Z,27.40
2019-06-20T18:08:14.488Z,27.40
2019-06-20T18:10:34.840Z,27.30
2019-06-20T18:13:03.586Z,27.30
2019-06-20T18:15:33.994Z,27.40
2019-06-20T18:18:02.744Z,27.60
2019-06-20T18:20:31.459Z,27.70
2019-06-20T18:23:00.194Z,27.70
2019-06-20T18:25:31.676Z,27.60
2019-06-20T18:27:59.232Z,27.50
2019-06-20T18:30:33.866Z,27.50
2019-06-20T18:33:02.548Z,27.40
2019-06-20T18:35:31.236Z,27.40
2019-06-20T18:37:59.963Z,27.40
2019-06-20T18:40:28.649Z,27.40
2019-06-20T18:42:57.393Z,27.30
2019-06-20T18:45:26.073Z,27.30
2019-06-20T18:47:54.759Z,27.20
2019-06-20T18:50:23.508Z,27.10
2019-06-20T18:52:53.732Z,27.10
2019-06-20T18:55:22.474Z,27.00
2019-06-20T18:57:51.160Z,26.90
2019-06-20T19:00:33.640Z,26.90
2019-06-20T19:02:50.387Z,26.80
2019-06-20T19:05:19.044Z,26.60
2019-06-20T19:07:47.736Z,26.50
2019-06-20T19:10:18.000Z,26.40
2019-06-20T19:12:49.673Z,26.30
2019-06-20T19:15:18.459Z,26.30
2019-06-20T19:17:51.269Z,26.30
2019-06-20T19:20:19.980Z,26.10
2019-06-20T19:22:48.709Z,26.10
2019-06-20T19:25:17.380Z,26.00
2019-06-20T19:27:47.098Z,26.00
2019-06-20T19:30:16.641Z,26.00
2019-06-20T19:32:45.324Z,25.90
2019-06-20T19:35:14.149Z,25.90
2019-06-20T19:40:42.547Z,25.70
2019-06-20T19:43:19.249Z,25.60
2019-06-20T19:45:52.609Z,25.60
2019-06-20T19:48:21.288Z,25.50
2019-06-20T19:50:50.057Z,25.60
2019-06-20T19:53:18.895Z,25.70
2019-06-20T19:55:47.581Z,25.70
2019-06-20T19:58:16.424Z,25.70
2019-06-20T20:00:45.200Z,25.80
2019-06-20T20:03:13.852Z,25.70
2019-06-20T20:05:42.692Z,25.60
2019-06-20T20:08:11.463Z,25.50
2019-06-20T20:10:45.100Z,25.50
2019-06-20T20:13:15.487Z,25.40
2019-06-20T20:15:44.574Z,25.30
2019-06-20T20:18:13.742Z,25.20
2019-06-20T20:20:46.486Z,25.10
2019-06-20T20:23:13.840Z,25.10
2019-06-20T20:25:42.525Z,25.10
2019-06-20T20:28:11.231Z,25.00
2019-06-20T20:30:39.947Z,24.90
2019-06-20T20:33:08.637Z,24.90
2019-06-20T20:35:37.404Z,25.00
2019-06-20T20:38:06.095Z,24.90
2019-06-20T20:40:34.775Z,24.90
2019-06-20T20:43:03.509Z,24.90
2019-06-20T20:45:32.206Z,24.90
2019-06-20T20:48:00.953Z,24.80
2019-06-20T20:50:29.629Z,24.70
2019-06-20T20:52:58.345Z,24.50
2019-06-20T20:55:27.079Z,24.50
2019-06-20T20:57:55.761Z,24.40
2019-06-20T21:00:27.646Z,24.40
2019-06-20T21:02:56.386Z,24.30
2019-06-20T21:05:25.117Z,24.40
2019-06-20T21:07:53.843Z,24.50
2019-06-20T21:10:22.535Z,24.60
2019-06-20T21:12:51.319Z,24.60
2019-06-20T21:15:20.001Z,24.50
2019-06-20T21:17:48.682Z,24.30
2019-06-20T21:20:18.548Z,24.20
2019-06-20T21:22:47.195Z,24.20
2019-06-20T21:25:15.933Z,24.20
2019-06-20T21:27:44.626Z,24.20
2019-06-20T21:30:13.317Z,24.20
2019-06-20T21:32:42.161Z,24.20
2019-06-20T21:35:12.525Z,24.20
2019-06-20T21:37:41.217Z,24.20
2019-06-20T21:40:09.927Z,24.20
2019-06-20T21:42:38.620Z,24.20
2019-06-20T21:45:07.512Z,24.20
2019-06-20T21:47:36.225Z,24.30
2019-06-20T21:50:06.227Z,24.30
2019-06-20T21:52:34.940Z,24.20
2019-06-20T21:55:05.021Z,24.20
2019-06-20T21:57:33.775Z,24.30
2019-06-20T22:00:02.554Z,24.20
2019-06-20T22:02:31.233Z,24.20
2019-06-20T22:04:59.975Z,24.20
2019-06-20T22:07:28.650Z,24.10
2019-06-20T22:09:57.389Z,24.10
2019-06-20T22:12:26.082Z,24.00
2019-06-20T22:14:54.754Z,23.90
2019-06-20T22:17:23.521Z,23.80
2019-06-20T22:19:52.200Z,23.80
2019-06-20T22:22:20.869Z,23.80
2019-06-20T22:24:49.579Z,23.80
2019-06-20T22:27:18.263Z,23.90
2019-06-20T22:29:47.040Z,23.70
2019-06-20T22:32:15.717Z,23.70
2019-06-20T22:34:44.397Z,23.60
2019-06-20T22:37:13.119Z,23.60
2019-06-20T22:39:41.796Z,23.60
2019-06-20T22:42:10.550Z,23.60
2019-06-20T22:44:39.233Z,23.50
2019-06-20T22:47:07.935Z,23.40
2019-06-20T22:49:36.649Z,23.40
2019-06-20T22:52:05.305Z,23.30
2019-06-20T22:54:34.053Z,23.30
2019-06-20T22:57:02.737Z,23.30
2019-06-20T22:59:31.410Z,23.20
2019-06-20T23:02:00.153Z,23.20
2019-06-20T23:04:28.833Z,23.20
2019-06-20T23:06:57.517Z,23.10
2019-06-20T23:09:27.370Z,23.20
2019-06-20T23:11:56.330Z,23.10
2019-06-20T23:14:25.083Z,23.10
2019-06-20T23:16:53.763Z,23.10
2019-06-20T23:19:22.440Z,23.10
2019-06-20T23:21:51.152Z,23.00
2019-06-20T23:24:19.825Z,23.00
2019-06-20T23:26:48.586Z,22.90
2019-06-20T23:29:23.249Z,22.80
2019-06-20T23:31:55.537Z,22.60
2019-06-20T23:34:24.218Z,22.60
2019-06-20T23:36:52.971Z,22.60
2019-06-20T23:39:21.649Z,22.50
2019-06-20T23:41:50.352Z,22.50
2019-06-20T23:44:19.105Z,22.40
2019-06-20T23:46:47.834Z,22.40
2019-06-20T23:49:16.581Z,22.50
2019-06-20T23:51:46.835Z,22.50
2019-06-20T23:54:15.509Z,22.50
2019-06-20T23:56:44.231Z,22.50
2019-06-20T23:59:12.913Z,22.50
